KBFF

Western Nebraska Regional / William B Heilig Field Airport

Scottsbluff, Nebraska, USA
METAR KBFF 181553Z AUTO 16006KT 10SM CLR 12/04 A3022 RMK AO2 SLP226 T01220039
Observed Flight Rules
Oct-18 @ 15:53 UTC (49 minutes ago) Visual Flight Rules
Wind Visibility Clouds
160° at 6 knots 10 miles
  • Clear skies
Temperatures Readings
Current 12°C / 54°F
Dewpoint 4°C / 39°F
Humidity 58%
Altimeter 30.22" Hg
Pressure 1022.6 hPa
Elevation 1203
METAR KBFF 181553Z AUTO 16006KT 10SM CLR 12/04 A3022 RMK AO2 SLP226 T01220039
Observed Flight Rules
Oct-18 @ 15:53 UTC
(49 minutes ago)
VFR
Wind Visibility
160° at 6 knots 10 miles
Clouds
  • Clear skies
Temperature Dewpoint
12°C / 54°F 4°C / 39°F
Humidity Altimeter Pressure
58% 30.22" Hg 1022.6 hPa